sensor_id;sensor_type;location;lat;lon;timestamp;pressure;altitude;pressure_sealevel;temperature;humidity
71642;BME280;60657;50.122;14.468;2023-09-19T00:01:36;97654.83428778576;;;19.664682993820094;75.45456626230259
71642;BME280;60657;50.122;14.468;2023-09-19T00:04:52;97662.4112788488;;;19.672693980315856;75.4965285725185
71642;BME280;60657;50.122;14.468;2023-09-19T00:08:08;97655.59757851198;;;19.531166552224008;75.04829480430304
71642;BME280;60657;50.122;14.468;2023-09-19T00:11:23;97656.00937914576;;;19.421683070115208;75.69108110170139
71642;BME280;60657;50.122;14.468;2023-09-19T00:14:39;97656.48576524637;;;19.30685893034257;75.82650492103456
71642;BME280;60657;50.122;14.468;2023-09-19T00:17:55;97675.92806322583;;;19.31754024567026;75.69108110170139
71642;BME280;60657;50.122;14.468;2023-09-19T00:21:12;97671.28184386107;;;19.125276569771884;75.19134813458457
71642;BME280;60657;50.122;14.468;2023-09-19T00:24:28;97675.6435348393;;;19.151979858091096;75.13984893568322
71642;BME280;60657;50.122;14.468;2023-09-19T00:27:44;97673.05328007696;;;19.170672159914545;75.29816128786145
71642;BME280;60657;50.122;14.468;2023-09-19T00:31:00;97674.46823755863;;;19.01312275883116;75.23712520027466
71642;BME280;60657;50.122;14.468;2023-09-19T00:34:15;97681.28436569509;;;19.066529335469596;75.01968413824675
71642;BME280;60657;50.122;14.468;2023-09-19T00:37:31;97679.15316692964;;;18.938353551537347;75.40306706340124
71642;BME280;60657;50.122;14.468;2023-09-19T00:40:48;97686.72163702831;;;18.997100785839628;75.01396200503548
71642;BME280;60657;50.122;14.468;2023-09-19T00:44:05;97687.4760111214;;;18.98641947051194;74.88807507438773
71642;BME280;60657;50.122;14.468;2023-09-19T00:47:21;97689.24446478472;;;18.930342565041578;74.84229800869764
71642;BME280;60657;50.122;14.468;2023-09-19T00:50:37;97685.40624045717;;;18.802166781109328;75.38780804150454
71642;BME280;60657;50.122;14.468;2023-09-19T00:53:57;97703.50964891762;;;18.676661326009004;75.44502937361715
71642;BME280;60657;50.122;14.468;2023-09-19T00:57:15;97690.14335772012;;;18.74876020447089;75.36110475318532
71642;BME280;60657;50.122;14.468;2023-09-19T01:00:30;97688.63137121244;;;18.700694285496297;75.21423666742962
71642;BME280;60657;50.122;14.468;2023-09-19T01:03:48;97676.14934233058;;;18.57785915922789;75.37254901960785
71642;BME280;60657;50.122;14.468;2023-09-19T01:07:05;97675.39338916057;;;18.65529869535363;75.26573586633097
71642;BME280;60657;50.122;14.468;2023-09-19T01:10:21;97681.63025563538;;;18.802166781109328;74.64393072404059
71642;BME280;60657;50.122;14.468;2023-09-19T01:13:42;97671.67003522857;;;18.746089875638972;74.96246280613413
71642;BME280;60657;50.122;14.468;2023-09-19T01:17:14;97670.09530836671;;;18.74876020447089;74.94529640650035
71642;BME280;60657;50.122;14.468;2023-09-19T01:20:45;97673.11627900762;;;18.78347447928588;74.88235294117646
71642;BME280;60657;50.122;14.468;2023-09-19T01:24:27;97677.7881595809;;;18.74074921797513;75.00251773861295
71642;BME280;60657;50.122;14.468;2023-09-19T01:28:06;97684.34356625855;;;18.71404592965591;74.96246280613413
71642;BME280;60657;50.122;14.468;2023-09-19T01:31:36;97680.18281243887;;;18.708705271992066;74.92431525139239
71642;BME280;60657;50.122;14.468;2023-09-19T01:34:55;97680.24641127294;;;18.70603494316014;75.01396200503548
71642;BME280;60657;50.122;14.468;2023-09-19T01:38:13;97665.99869545944;;;18.68734264133669;74.9205004959182
71642;BME280;60657;50.122;14.468;2023-09-19T01:41:32;97674.70059384718;;;18.516441596093692;75.2466620889601
71642;BME280;60657;50.122;14.468;2023-09-19T01:45:03;97670.66662034286;;;18.564507515068286;75.3057907988098
71642;BME280;60657;50.122;14.468;2023-09-19T01:48:29;97672.36852500167;;;18.537804226749067;75.41451132982375
71642;BME280;60657;50.122;14.468;2023-09-19T01:51:58;97675.897800487;;;18.51110093842985;75.59761959258411
71642;BME280;60657;50.122;14.468;2023-09-19T01:55:21;97671.73769484136;;;18.47638666361486;75.63958190280003
71642;BME280;60657;50.122;14.468;2023-09-19T01:58:44;97672.74499922531;;;18.385595483329517;75.67772945754177
71642;BME280;60657;50.122;14.468;2023-09-19T02:02:04;97671.73769484136;;;18.532463569085223;75.36301213092241
71642;BME280;60657;50.122;14.468;2023-09-19T02:05:22;97674.88985109168;;;18.609903105210954;74.9662775616083
71642;BME280;60657;50.122;14.468;2023-09-19T02:08:38;97675.7093109411;;;18.58854047455558;75.17227435721371
71642;BME280;60657;50.122;14.468;2023-09-19T02:11:54;97672.99850122194;;;18.58854047455558;74.88044556343938
71642;BME280;60657;50.122;14.468;2023-09-19T02:15:10;97678.79777800411;;;18.67132066834516;74.81750209811551
71642;BME280;60657;50.122;14.468;2023-09-19T02:18:27;97671.04224004365;;;18.700694285496297;74.65918974593728
71642;BME280;60657;50.122;14.468;2023-09-19T02:21:42;97660.82709106838;;;18.794155794613566;74.45319295033188
71642;BME280;60657;50.122;14.468;2023-09-19T02:24:58;97668.89117394955;;;18.711375600823985;74.38834210727093
71642;BME280;60657;50.122;14.468;2023-09-19T02:28:14;97659.42723030043;;;18.852903028915847;74.25291828793775
71642;BME280;60657;50.122;14.468;2023-09-19T02:31:30;97667.68396925768;;;18.868925001907378;74.29106584267949
71642;BME280;60657;50.122;14.468;2023-09-19T02:34:46;97668.63286314507;;;18.868925001907378;74.30632486457618
71642;BME280;60657;50.122;14.468;2023-09-19T02:38:02;97670.33605643985;;;18.831540398260472;74.42839703974975
71642;BME280;60657;50.122;14.468;2023-09-19T02:41:18;97672.85847802612;;;18.87693598840314;74.22621499961852
71642;BME280;60657;50.122;14.468;2023-09-19T02:44:34;97655.89042246997;;;18.88494697489891;74.3616388189517
71642;BME280;60657;50.122;14.468;2023-09-19T02:47:49;97664.90079908693;;;18.890287632562753;74.09269855802243
71642;BME280;60657;50.122;14.468;2023-09-19T02:51:05;97667.55394647957;;;18.820859082932785;74.19951171129931
71642;BME280;60657;50.122;14.468;2023-09-19T02:54:21;97669.88107710863;;;19.00244144350347;73.7436484321355
71642;BME280;60657;50.122;14.468;2023-09-19T02:57:37;97672.07655504585;;;19.08789196612497;73.44037537193866
71642;BME280;60657;50.122;14.468;2023-09-19T03:00:53;97663.55620449483;;;19.085221637293046;73.19432364385443
71642;BME280;60657;50.122;14.468;2023-09-19T03:04:08;97671.94499153447;;;19.101243610284584;73.36980239566644
71642;BME280;60657;50.122;14.468;2023-09-19T03:07:24;97656.67293790853;;;19.114595254444197;72.95208667124437
71642;BME280;60657;50.122;14.468;2023-09-19T03:10:40;97666.89850607364;;;19.03715571831846;73.11993591210803
71642;BME280;60657;50.122;14.468;2023-09-19T03:13:56;97675.22151809045;;;19.03715571831846;73.08560311284047
71642;BME280;60657;50.122;14.468;2023-09-19T03:17:12;97664.375266637;;;18.983749141680015;73.18860151064317
71642;BME280;60657;50.122;14.468;2023-09-19T03:20:30;97663.75391507009;;;19.007782101167322;73.23628595407034
71642;BME280;60657;50.122;14.468;2023-09-19T03:23:46;97675.54996132817;;;18.994430457007702;73.28206301976043
71642;BME280;60657;50.122;14.468;2023-09-19T03:27:02;97672.20776332926;;;18.98641947051194;73.12375066758221
71642;BME280;60657;50.122;14.468;2023-09-19T03:30:19;97669.5534286844;;;19.095902952620733;72.83573662928207
71642;BME280;60657;50.122;14.468;2023-09-19T03:33:34;97673.8460999552;;;19.08789196612497;72.78423743038071
71642;BME280;60657;50.122;14.468;2023-09-19T03:36:50;97669.68475443347;;;19.071869993133447;72.95590142671854
71642;BME280;60657;50.122;14.468;2023-09-19T03:40:07;97666.34262518291;;;19.029144731822697;72.99786373693446
71642;BME280;60657;50.122;14.468;2023-09-19T03:43:23;97682.16908244793;;;18.975738155184253;73.1256580453193
71642;BME280;60657;50.122;14.468;2023-09-19T03:46:39;97675.54996132817;;;18.967727168688484;73.2572671091783
71642;BME280;60657;50.122;14.468;2023-09-19T03:49:55;97677.3844058818;;;19.00244144350347;73.14663920042726
71642;BME280;60657;50.122;14.468;2023-09-19T03:53:12;97674.23771411055;;;18.852903028915847;73.76272220950636
71642;BME280;60657;50.122;14.468;2023-09-19T03:56:28;97669.19232205862;;;18.933012893873503;73.61966887922485
71642;BME280;60657;50.122;14.468;2023-09-19T03:59:44;97683.9383199683;;;19.039826047150385;73.2420080872816
71642;BME280;60657;50.122;14.468;2023-09-19T04:03:00;97688.09993389879;;;19.066529335469596;73.09132524605172
71642;BME280;60657;50.122;14.468;2023-09-19T04:06:16;97685.51146788846;;;19.042496375982296;73.2000457770657
71642;BME280;60657;50.122;14.468;2023-09-19T04:09:36;97699.89609240614;;;19.047837033646147;73.44228274967574
71642;BME280;60657;50.122;14.468;2023-09-19T04:12:52;97679.64594730396;;;19.066529335469596;73.33737697413596
71642;BME280;60657;50.122;14.468;2023-09-19T04:16:13;97681.48057646047;;;18.967727168688484;73.72648203250172
71642;BME280;60657;50.122;14.468;2023-09-19T04:19:28;97687.54095210377;;;19.010452429999233;73.83520256351568
71642;BME280;60657;50.122;14.468;2023-09-19T04:22:44;97692.39191353103;;;19.058518348973834;73.63492790112154
71642;BME280;60657;50.122;14.468;2023-09-19T04:26:00;97694.03057510937;;;19.066529335469596;73.53192950331884
71642;BME280;60657;50.122;14.468;2023-09-19T04:29:16;97701.6646344394;;;19.058518348973834;73.77988860914016
71642;BME280;60657;50.122;14.468;2023-09-19T04:32:32;97713.95609777317;;;19.125276569771884;73.81231403067063
71642;BME280;60657;50.122;14.468;2023-09-19T04:35:49;97704.68220969307;;;19.10658426794842;73.7589074540322
71642;BME280;60657;50.122;14.468;2023-09-19T04:39:05;97723.35909610969;;;19.09857328145266;73.88670176241703
71642;BME280;60657;50.122;14.468;2023-09-19T04:42:21;97718.1183802351;;;19.071869993133447;73.88860914015412
71642;BME280;60657;50.122;14.468;2023-09-19T04:45:38;97725.9467140368;;;19.077210650797284;74.06408789196612
71642;BME280;60657;50.122;14.468;2023-09-19T04:48:54;97726.63734140851;;;19.09857328145266;73.5967803463798
71642;BME280;60657;50.122;14.468;2023-09-19T04:52:10;97736.03927217181;;;19.085221637293046;73.91721980621043
71642;BME280;60657;50.122;14.468;2023-09-19T04:55:30;97736.03927217181;;;19.077210650797284;73.84283207446403
71642;BME280;60657;50.122;14.468;2023-09-19T04:58:46;97743.48059703184;;;19.119935912108033;73.95536736095217
71642;BME280;60657;50.122;14.468;2023-09-19T05:02:02;97757.608663473;;;19.168001831082634;73.81994354161898
71642;BME280;60657;50.122;14.468;2023-09-19T05:05:18;97756.85286665296;;;19.13061722743572;73.60822461280232
71642;BME280;60657;50.122;14.468;2023-09-19T05:08:35;97753.07230131673;;;18.954375524528878;74.29297322041657
71642;BME280;60657;50.122;14.468;2023-09-19T05:11:50;97760.57787305226;;;18.98908979934386;74.214770733196
71642;BME280;60657;50.122;14.468;2023-09-19T05:15:07;97760.06806476662;;;19.101243610284584;73.8332951857786
71642;BME280;60657;50.122;14.468;2023-09-19T05:18:23;97764.48668229832;;;19.109254596780346;73.91531242847333
71642;BME280;60657;50.122;14.468;2023-09-19T05:21:41;97759.2482609078;;;19.170672159914545;73.7741664759289
71642;BME280;60657;50.122;14.468;2023-09-19T05:24:57;97767.76620111139;;;19.10658426794842;73.82566567483025
71642;BME280;60657;50.122;14.468;2023-09-19T05:28:12;97767.82988412809;;;19.085221637293046;73.8180361638819
71642;BME280;60657;50.122;14.468;2023-09-19T05:31:28;97769.03007589444;;;19.039826047150385;74.21667811093309
71642;BME280;60657;50.122;14.468;2023-09-19T05:34:44;97771.48997170915;;;19.042496375982296;74.14229037918669
71642;BME280;60657;50.122;14.468;2023-09-19T05:38:00;97783.34801268754;;;19.023804074158846;74.20523384451057
71642;BME280;60657;50.122;14.468;2023-09-19T05:41:16;97784.10528509833;;;19.005111772335397;74.07934691386282
71642;BME280;60657;50.122;14.468;2023-09-19T05:44:34;97777.92321516741;;;19.125276569771884;73.72266727702754
71642;BME280;60657;50.122;14.468;2023-09-19T05:47:50;97781.39308555626;;;19.08789196612497;73.85427634088654
71642;BME280;60657;50.122;14.468;2023-09-19T05:51:06;97788.71010705028;;;19.114595254444197;73.74937056534677
71642;BME280;60657;50.122;14.468;2023-09-19T05:54:22;97790.03220636296;;;19.184023804074158;73.3907835507744
71642;BME280;60657;50.122;14.468;2023-09-19T05:57:38;97784.41961926864;;;19.138628213931483;73.5967803463798
71642;BME280;60657;50.122;14.468;2023-09-19T06:00:54;97777.6688900127;;;19.205386434729533;73.47661554894331
71642;BME280;60657;50.122;14.468;2023-09-19T06:04:09;97784.72811144027;;;19.31754024567026;73.04745555809873
71642;BME280;60657;50.122;14.468;2023-09-19T06:07:25;97790.14469315445;;;19.440375371938657;72.82238498512245
71642;BME280;60657;50.122;14.468;2023-09-19T06:10:41;97790.5319432309;;;19.242771038376446;73.09323262378882
71642;BME280;60657;50.122;14.468;2023-09-19T06:13:57;97808.20092156876;;;19.328221560997946;72.8872358281834
71642;BME280;60657;50.122;14.468;2023-09-19T06:17:13;97822.52563110841;;;19.32555123216602;72.97306782635233
71642;BME280;60657;50.122;14.468;2023-09-19T06:20:29;97835.39847944786;;;19.245441367208358;73.16380560006104
71642;BME280;60657;50.122;14.468;2023-09-19T06:23:44;97833.94526225916;;;19.419012741283282;72.64881361104753
71642;BME280;60657;50.122;14.468;2023-09-19T06:27:00;97846.2494098307;;;19.432364385442895;72.5210193026627
71642;BME280;60657;50.122;14.468;2023-09-19T06:30:19;97841.56985624607;;;19.613946746013582;71.75234607461661
71642;BME280;60657;50.122;14.468;2023-09-19T06:33:36;97850.5922013113;;;19.635309376668957;71.61882963302052
71642;BME280;60657;50.122;14.468;2023-09-19T06:36:52;97855.38386932312;;;19.72877088578622;71.3422598611429
71642;BME280;60657;50.122;14.468;2023-09-19T06:40:09;97865.4218088567;;;19.726100556954293;71.23353933012893
71642;BME280;60657;50.122;14.468;2023-09-19T06:43:30;97872.8046775215;;;19.680704966811632;71.22590981918059
71642;BME280;60657;50.122;14.468;2023-09-19T06:46:46;97881.39675029308;;;19.69405661097123;71.17441062027925
71642;BME280;60657;50.122;14.468;2023-09-19T06:50:02;97871.03402557483;;;19.77149614709697;71.11909666590371
71642;BME280;60657;50.122;14.468;2023-09-19T06:53:18;97885.11007171165;;;19.84626535439078;70.83489738307775
71642;BME280;60657;50.122;14.468;2023-09-19T06:56:34;97879.86162173972;;;19.90501258869307;70.75478751812008
71642;BME280;60657;50.122;14.468;2023-09-19T06:59:50;97880.25279493873;;;19.755474174105444;70.80247196154727
71642;BME280;60657;50.122;14.468;2023-09-19T07:03:07;97876.51492536505;;;19.891660944533456;70.61745632104981
71642;BME280;60657;50.122;14.468;2023-09-19T07:06:23;97892.62383568769;;;19.840924696726944;70.796749828336
71642;BME280;60657;50.122;14.468;2023-09-19T07:09:41;97891.1491389854;;;19.97444113832303;70.1635004196231
71642;BME280;60657;50.122;14.468;2023-09-19T07:12:57;97894.72060480033;;;20.14534218356603;70.0605020218204
71642;BME280;60657;50.122;14.468;2023-09-19T07:16:13;97891.23937528167;;;20.081254291599905;69.91554131380178
71642;BME280;60657;50.122;14.468;2023-09-19T07:19:29;97895.82504089124;;;20.26283665217059;69.90981918059052
71642;BME280;60657;50.122;14.468;2023-09-19T07:22:45;97896.71873673868;;;20.399023422598617;69.04005493247882
71642;BME280;60657;50.122;14.468;2023-09-19T07:26:01;97898.29048108777;;;20.484473945220117;68.5727473868925
71642;BME280;60657;50.122;14.468;2023-09-19T07:29:17;97896.03054248412;;;20.593957427328903;68.6032654306859
71642;BME280;60657;50.122;14.468;2023-09-19T07:32:33;97903.75622365769;;;20.607309071488515;68.40299076829176
71642;BME280;60657;50.122;14.468;2023-09-19T07:35:49;97903.8826086863;;;20.740825513084616;68.4106202792401
71642;BME280;60657;50.122;14.468;2023-09-19T07:39:04;97905.66204506319;;;20.724803540093077;68.37056534676127
71642;BME280;60657;50.122;14.468;2023-09-19T07:42:21;97911.48086190675;;;20.508506904707403;68.51552605477988
71642;BME280;60657;50.122;14.468;2023-09-19T07:45:37;97908.74561463129;;;20.575265125505453;68.50789654383154
71642;BME280;60657;50.122;14.468;2023-09-19T07:48:53;97905.87061376203;;;20.700770580605777;68.14740215152209
71642;BME280;60657;50.122;14.468;2023-09-19T07:52:08;97909.97078676961;;;20.54856183718624;68.37247272449837
71642;BME280;60657;50.122;14.468;2023-09-19T07:55:24;97917.35131051809;;;20.727473868925003;68.08827344167238
71642;BME280;60657;50.122;14.468;2023-09-19T07:58:41;97917.0845500583;;;20.487144274052028;68.14168001831082
71642;BME280;60657;50.122;14.468;2023-09-19T08:01:57;97918.65627805707;;;20.40169375143053;68.7501335164416
71642;BME280;60657;50.122;14.468;2023-09-19T08:05:13;97925.08251504113;;;20.497825589379715;68.33623254749371
71642;BME280;60657;50.122;14.468;2023-09-19T08:08:29;97936.29301889999;;;20.639353017471578;67.91279468986038
71642;BME280;60657;50.122;14.468;2023-09-19T08:11:46;97932.80586264282;;;20.674067292286566;67.7621118486305
71642;BME280;60657;50.122;14.468;2023-09-19T08:15:02;97935.60260713658;;;20.754177157244214;67.37300679026474
71642;BME280;60657;50.122;14.468;2023-09-19T08:18:19;97932.2315763396;;;20.898374914168002;67.0563820859083
71642;BME280;60657;50.122;14.468;2023-09-19T08:21:35;97922.85773428861;;;20.89303425650415;66.4383916990921
71642;BME280;60657;50.122;14.468;2023-09-19T08:24:50;97935.88412726109;;;21.46982528419929;65.6849774929427
71642;BME280;60657;50.122;14.468;2023-09-19T08:28:06;97929.44935530693;;;22.02792401007096;62.76287479972534
71642;BME280;60657;50.122;14.468;2023-09-19T08:31:22;97922.523469839;;;22.690165560387584;62.15442130159457
71642;BME280;60657;50.122;14.468;2023-09-19T08:34:38;97925.64840345;;;22.826352330815595;61.34569314106966
71642;BME280;60657;50.122;14.468;2023-09-19T08:37:54;97928.67231452622;;;22.716868848706795;60.63805600061036
71642;BME280;60657;50.122;14.468;2023-09-19T08:41:09;97916.45138090427;;;22.39642938887617;61.143511100938426
71642;BME280;60657;50.122;14.468;2023-09-19T08:44:25;97926.8020810652;;;22.182803082322422;61.79392690928512
71642;BME280;60657;50.122;14.468;2023-09-19T08:47:45;97941.50746327678;;;22.158770122835122;62.09719996948196
71642;BME280;60657;50.122;14.468;2023-09-19T08:51:13;97947.51360812927;;;21.739528496223386;62.7838559548333
71642;BME280;60657;50.122;14.468;2023-09-19T08:54:38;97943.26210437363;;;21.261539635309376;63.79285877775234
71642;BME280;60657;50.122;14.468;2023-09-19T08:57:59;97946.91932911593;;;21.76089112687876;62.88685435263599
71642;BME280;60657;50.122;14.468;2023-09-19T09:01:21;97954.51234462371;;;21.897077897306787;62.39475089646754
71642;BME280;60657;50.122;14.468;2023-09-19T09:04:43;97958.24649942372;;;22.318989852750434;61.32089723048753
71642;BME280;60657;50.122;14.468;2023-09-19T09:08:01;97954.95965896302;;;22.84237430380712;60.174563210498206
71642;BME280;60657;50.122;14.468;2023-09-19T09:11:18;97948.64626446433;;;23.15213244831007;58.530403601129166
71642;BME280;60657;50.122;14.468;2023-09-19T09:14:34;97957.33563199571;;;22.839703974975208;59.1598382543679
71642;BME280;60657;50.122;14.468;2023-09-19T09:17:51;97957.41670399213;;;22.858396276798658;59.30861371786068
71642;BME280;60657;50.122;14.468;2023-09-19T09:21:07;97950.69957872976;;;23.06134126802472;59.0701915007248
71642;BME280;60657;50.122;14.468;2023-09-19T09:24:26;97942.2196596289;;;23.509956511787593;58.15083543144884
71642;BME280;60657;50.122;14.468;2023-09-19T09:27:43;97957.54694270482;;;23.269626916914632;57.923857480735485
71642;BME280;60657;50.122;14.468;2023-09-19T09:31:03;97952.58563433678;;;23.088044556343945;58.290074006256205
71642;BME280;60657;50.122;14.468;2023-09-19T09:34:19;97957.56338287012;;;22.519264515144584;59.59662775616083
71642;BME280;60657;50.122;14.468;2023-09-19T09:37:35;97971.12078811562;;;22.45517662317846;60.025787747005424
71642;BME280;60657;50.122;14.468;2023-09-19T09:40:51;97974.3611594283;;;22.318989852750434;60.462577248798354
71642;BME280;60657;50.122;14.468;2023-09-19T09:44:12;97965.81150684404;;;22.204165712977797;61.01190203707942
71642;BME280;60657;50.122;14.468;2023-09-19T09:47:40;97962.32773270892;;;21.93179217212176;61.109178301670866
71642;BME280;60657;50.122;14.468;2023-09-19T09:50:57;97951.92587820064;;;22.20950637064165;60.59990844586862
71642;BME280;60657;50.122;14.468;2023-09-19T09:54:16;97936.37494754799;;;22.991912718394744;58.923323414969104
71642;BME280;60657;50.122;14.468;2023-09-19T09:57:33;97930.07470259006;;;23.80102235446708;56.76226443884947
71642;BME280;60657;50.122;14.468;2023-09-19T10:00:53;97912.33504077868;;;24.273670557717253;55.02845807583734
71642;BME280;60657;50.122;14.468;2023-09-19T10:04:08;97920.5143461946;;;24.447241931792178;55.05516136415656
71642;BME280;60657;50.122;14.468;2023-09-19T10:07:25;97924.32899627056;;;24.54070344090944;54.114824139772644
71642;BME280;60657;50.122;14.468;2023-09-19T10:10:41;97917.14607605198;;;24.594110017547877;53.60746166170748
71642;BME280;60657;50.122;14.468;2023-09-19T10:13:58;97922.05160021556;;;24.5246814679179;52.57747768368048
71642;BME280;60657;50.122;14.468;2023-09-19T10:17:18;97928.4841946039;;;24.802395666437775;51.9842832074464
71642;BME280;60657;50.122;14.468;2023-09-19T10:20:37;97928.23429188739;;;24.409857328145264;52.79110399023423
71642;BME280;60657;50.122;14.468;2023-09-19T10:23:53;97928.41925215081;;;24.300373846036464;52.77393759060044
71642;BME280;60657;50.122;14.468;2023-09-19T10:27:10;97936.2950251027;;;23.958571755550466;53.954604409857325
71642;BME280;60657;50.122;14.468;2023-09-19T10:30:26;97940.41577569426;;;23.686198214694443;54.46387426565957
71642;BME280;60657;50.122;14.468;2023-09-19T10:33:44;97943.21342436923;;;24.209582665751128;52.84641794460975
71642;BME280;60657;50.122;14.468;2023-09-19T10:37:02;97926.78368348617;;;24.375143053330277;52.983749141680015
71642;BME280;60657;50.122;14.468;2023-09-19T10:40:23;97929.77933004872;;;25.114824139772637;50.44884412909133
71642;BME280;60657;50.122;14.468;2023-09-19T10:43:48;97931.49627167321;;;25.65423056382086;49.605783169298846
71642;BME280;60657;50.122;14.468;2023-09-19T10:47:06;97910.45291862513;;;26.415274280918595;48.85618371862363
71642;BME280;60657;50.122;14.468;2023-09-19T10:50:22;97906.46539404658;;;26.482032501716645;45.80247196154726
71642;BME280;60657;50.122;14.468;2023-09-19T10:53:41;97894.37447124183;;;26.556801709010458;44.85069047074082
71642;BME280;60657;50.122;14.468;2023-09-19T10:57:02;97895.65700927189;;;26.75440604257267;43.64713511863889
71642;BME280;60657;50.122;14.468;2023-09-19T11:00:19;97886.8078314745;;;27.547493705653466;43.29808499275197
71642;BME280;60657;50.122;14.468;2023-09-19T11:03:35;97889.80502320347;;;27.08552681773098;43.09590295262074
71642;BME280;60657;50.122;14.468;2023-09-19T11:07:08;97898.5194178807;;;27.750438696879527;42.32722972457466
71642;BME280;60657;50.122;14.468;2023-09-19T11:10:44;97885.57606074608;;;28.14831769283589;41.93621728847181
71642;BME280;60657;50.122;14.468;2023-09-19T11:14:16;97890.87663550468;;;27.755779354543378;41.60051880674449
71642;BME280;60657;50.122;14.468;2023-09-19T11:17:44;97893.39635743706;;;27.39795529106584;41.57953765163653
71642;BME280;60657;50.122;14.468;2023-09-19T11:21:34;97883.98989419013;;;27.691691462577253;41.51850156404974
71642;BME280;60657;50.122;14.468;2023-09-19T11:24:54;97880.19325308468;;;27.547493705653466;40.244373235675596
71642;BME280;60657;50.122;14.468;2023-09-19T11:28:27;97890.51034850684;;;27.13359273670558;39.97352559700923
71642;BME280;60657;50.122;14.468;2023-09-19T11:31:44;97884.04918649833;;;27.077515831235218;39.727473868925
71642;BME280;60657;50.122;14.468;2023-09-19T11:35:06;97888.32798366432;;;27.45136186770428;39.53864347295338
71642;BME280;60657;50.122;14.468;2023-09-19T11:38:40;97882.77154393583;;;27.49408712901503;39.39177538719768
71642;BME280;60657;50.122;14.468;2023-09-19T11:42:40;97882.33908407607;;;28.34325169756619;39.97543297474632
71642;BME280;60657;50.122;14.468;2023-09-19T11:46:05;97870.75182767579;;;29.016174563210498;36.54406042572671
71642;BME280;60657;50.122;14.468;2023-09-19T11:49:25;97873.69478688222;;;28.532845044632637;35.834515907530324
71642;BME280;60657;50.122;14.468;2023-09-19T11:52:43;97878.74362383303;;;28.98680094605936;34.47455558098726
71642;BME280;60657;50.122;14.468;2023-09-19T11:55:59;97883.65831287026;;;29.042877851529724;35.79255359731441
71642;BME280;60657;50.122;14.468;2023-09-19T11:59:19;97875.9023350721;;;29.259174486915384;35.03913939116503